createdAt,value
2024-05-09T00:00:39.200Z,23.08
2024-05-09T00:01:35.479Z,23.07
2024-05-09T00:02:34.477Z,23.07
2024-05-09T00:03:34.451Z,23.07
2024-05-09T00:04:34.508Z,23.07
2024-05-09T00:05:34.758Z,23.07
2024-05-09T00:06:34.411Z,23.07
2024-05-09T00:07:34.468Z,23.07
2024-05-09T00:08:34.582Z,23.07
2024-05-09T00:09:34.407Z,23.08
2024-05-09T00:10:37.345Z,23.07
2024-05-09T00:11:34.561Z,23.07
2024-05-09T00:12:34.916Z,23.07
2024-05-09T00:13:34.448Z,23.07
2024-05-09T00:14:34.471Z,23.07
2024-05-09T00:15:35.072Z,23.08
2024-05-09T00:16:34.417Z,23.07
2024-05-09T00:17:34.972Z,23.08
2024-05-09T00:18:34.521Z,23.06
2024-05-09T00:19:35.467Z,23.07
2024-05-09T00:20:38.784Z,23.07
2024-05-09T00:21:35.456Z,23.07
2024-05-09T00:22:34.573Z,23.07
2024-05-09T00:23:34.616Z,23.08
2024-05-09T00:24:34.480Z,23.07
2024-05-09T00:25:34.463Z,23.07
2024-05-09T00:26:34.498Z,23.07
2024-05-09T00:27:34.883Z,23.06
2024-05-09T00:28:34.450Z,23.06
2024-05-09T00:29:34.539Z,23.06
2024-05-09T00:30:36.621Z,23.06
2024-05-09T00:31:34.457Z,23.07
2024-05-09T00:32:34.573Z,23.06
2024-05-09T00:33:34.684Z,23.06
2024-05-09T00:34:34.493Z,23.05
2024-05-09T00:35:34.607Z,23.06
2024-05-09T00:36:34.461Z,23.05
2024-05-09T00:37:34.895Z,23.05
2024-05-09T00:38:34.481Z,23.05
2024-05-09T00:39:34.499Z,23.05
2024-05-09T00:40:39.173Z,23.05
2024-05-09T00:41:35.597Z,23.04
2024-05-09T00:42:34.511Z,23.05
2024-05-09T00:43:34.478Z,23.05
2024-05-09T00:44:34.533Z,23.05
2024-05-09T00:45:34.548Z,23.04
2024-05-09T00:46:34.490Z,23.05
2024-05-09T00:47:34.747Z,23.05
2024-05-09T00:48:34.657Z,23.04
2024-05-09T00:49:34.709Z,23.04
2024-05-09T00:50:36.881Z,23.05
2024-05-09T00:51:34.511Z,23.05
2024-05-09T00:52:34.575Z,23.05
2024-05-09T00:53:34.677Z,23.05
2024-05-09T00:54:34.514Z,23.05
2024-05-09T00:55:34.517Z,23.05
2024-05-09T00:56:34.556Z,23.04
2024-05-09T00:57:34.523Z,23.05
2024-05-09T00:58:34.515Z,23.05
2024-05-09T00:59:34.600Z,23.04
2024-05-09T01:00:39.184Z,23.04
2024-05-09T01:01:35.571Z,23.04
2024-05-09T01:02:34.605Z,23.04
2024-05-09T01:03:34.689Z,23.03
2024-05-09T01:04:34.536Z,23.03
2024-05-09T01:05:35.025Z,23.03
2024-05-09T01:06:34.541Z,23.03
2024-05-09T01:07:34.914Z,23.03
2024-05-09T01:08:34.652Z,23.03
2024-05-09T01:09:34.526Z,23.03
2024-05-09T01:10:35.785Z,23.02
2024-05-09T01:11:34.604Z,23.03
2024-05-09T01:12:34.615Z,23.03
2024-05-09T01:13:34.531Z,23.03
2024-05-09T01:14:34.587Z,23.03
2024-05-09T01:15:34.642Z,23.02
2024-05-09T01:16:34.539Z,23.02
2024-05-09T01:17:34.812Z,23.02
2024-05-09T01:18:34.712Z,23.01
2024-05-09T01:19:34.595Z,23.02
2024-05-09T01:20:41.266Z,23.01
2024-05-09T01:21:35.583Z,23.01
2024-05-09T01:22:34.882Z,23.01
2024-05-09T01:23:34.590Z,23.01
2024-05-09T01:24:34.555Z,23.01
2024-05-09T01:25:34.573Z,23.02
2024-05-09T01:26:34.601Z,23.02
2024-05-09T01:27:34.574Z,23.01
2024-05-09T01:28:34.552Z,23.02
2024-05-09T01:29:34.634Z,23.01
2024-05-09T01:30:36.946Z,23.02
2024-05-09T01:31:34.614Z,23.02
2024-05-09T01:32:34.743Z,23.01
2024-05-09T01:33:34.896Z,23.01
2024-05-09T01:34:34.563Z,23.01
2024-05-09T01:35:34.685Z,23.00
2024-05-09T01:36:34.585Z,23.01
2024-05-09T01:37:34.932Z,23.00
2024-05-09T01:38:34.682Z,23.00
2024-05-09T01:39:34.601Z,23.01
2024-05-09T01:40:38.456Z,23.01
2024-05-09T01:41:35.621Z,23.01
2024-05-09T01:42:34.635Z,23.00
2024-05-09T01:43:34.619Z,23.01
2024-05-09T01:44:34.619Z,23.00
2024-05-09T01:45:34.598Z,23.00
2024-05-09T01:46:34.583Z,23.00
2024-05-09T01:47:34.857Z,23.01
2024-05-09T01:48:34.763Z,23.00
2024-05-09T01:49:34.897Z,23.00
2024-05-09T01:50:39.456Z,23.00
2024-05-09T01:51:35.604Z,23.00
2024-05-09T01:52:34.599Z,23.00
2024-05-09T01:53:34.791Z,23.00
2024-05-09T01:54:34.590Z,23.00
2024-05-09T01:55:34.627Z,23.00
2024-05-09T01:56:34.693Z,23.00
2024-05-09T01:57:34.625Z,23.00
2024-05-09T01:58:34.619Z,23.00
2024-05-09T01:59:34.650Z,23.00
2024-05-09T02:00:40.014Z,23.00
2024-05-09T02:01:55.598Z,22.98
2024-05-09T02:02:35.741Z,22.98
2024-05-09T02:03:34.795Z,22.98
2024-05-09T02:04:34.711Z,22.99
2024-05-09T02:05:34.800Z,22.99
2024-05-09T02:06:34.617Z,22.99
2024-05-09T02:07:34.623Z,22.99
2024-05-09T02:08:34.765Z,22.98
2024-05-09T02:09:34.697Z,22.98
2024-05-09T02:10:34.606Z,22.98
2024-05-09T02:11:34.705Z,22.98
2024-05-09T02:12:35.027Z,22.99
2024-05-09T02:13:34.612Z,22.99
2024-05-09T02:14:34.720Z,22.98
2024-05-09T02:15:34.628Z,22.99
2024-05-09T02:16:34.634Z,22.99
2024-05-09T02:17:35.058Z,22.99
2024-05-09T02:18:34.713Z,22.98
2024-05-09T02:19:34.754Z,22.98
2024-05-09T02:20:36.717Z,22.98
2024-05-09T02:21:34.725Z,22.98
2024-05-09T02:22:34.768Z,22.99
2024-05-09T02:23:35.460Z,22.98
2024-05-09T02:24:34.825Z,22.98
2024-05-09T02:25:35.020Z,22.98
2024-05-09T02:26:34.893Z,22.98
2024-05-09T02:27:34.916Z,22.98
2024-05-09T02:28:34.965Z,22.98
2024-05-09T02:29:35.029Z,22.98
2024-05-09T02:30:39.694Z,22.98
2024-05-09T02:31:36.022Z,22.97
2024-05-09T02:32:35.110Z,22.97
2024-05-09T02:33:35.239Z,22.96
2024-05-09T02:34:35.017Z,22.97
2024-05-09T02:35:35.138Z,22.96
2024-05-09T02:36:35.020Z,22.96
2024-05-09T02:37:35.247Z,22.97
2024-05-09T02:38:35.064Z,22.97
2024-05-09T02:39:35.023Z,22.96
2024-05-09T02:40:37.806Z,22.96
2024-05-09T02:41:35.089Z,22.96
2024-05-09T02:42:34.990Z,22.96
2024-05-09T02:43:35.000Z,22.96
2024-05-09T02:44:35.038Z,22.96
2024-05-09T02:45:35.014Z,22.96
2024-05-09T02:46:34.998Z,22.96
2024-05-09T02:47:35.134Z,22.97
2024-05-09T02:48:35.100Z,22.96
2024-05-09T02:49:35.061Z,22.96
2024-05-09T02:50:39.104Z,22.96
2024-05-09T02:51:36.009Z,22.95
2024-05-09T02:52:35.020Z,22.95
2024-05-09T02:53:35.107Z,22.95
2024-05-09T02:54:35.023Z,22.95
2024-05-09T02:55:35.060Z,22.95
2024-05-09T02:56:35.112Z,22.95
2024-05-09T02:57:35.030Z,22.95
2024-05-09T02:58:35.030Z,22.95
2024-05-09T02:59:35.073Z,22.94
2024-05-09T03:00:39.498Z,22.96
2024-05-09T03:01:36.121Z,22.95
2024-05-09T03:02:35.157Z,22.95
2024-05-09T03:03:35.223Z,22.95
2024-05-09T03:04:35.211Z,22.95
2024-05-09T03:05:35.200Z,22.95
2024-05-09T03:06:35.051Z,22.95
2024-05-09T03:07:35.055Z,22.94
2024-05-09T03:08:35.233Z,22.95
2024-05-09T03:09:35.042Z,22.95
2024-05-09T03:10:37.247Z,22.94
2024-05-09T03:11:35.140Z,22.94
2024-05-09T03:12:37.887Z,22.94
2024-05-09T03:13:35.058Z,22.93
2024-05-09T03:14:35.101Z,22.94
2024-05-09T03:15:35.052Z,22.94
2024-05-09T03:16:35.077Z,22.93
2024-05-09T03:17:35.230Z,22.93
2024-05-09T03:18:35.157Z,22.93
2024-05-09T03:19:35.122Z,22.93
2024-05-09T03:20:36.318Z,22.93
2024-05-09T03:21:35.086Z,22.93
2024-05-09T03:22:35.092Z,22.94
2024-05-09T03:23:35.138Z,22.94
2024-05-09T03:24:35.064Z,22.93
2024-05-09T03:25:35.111Z,22.93
2024-05-09T03:26:35.152Z,22.93
2024-05-09T03:27:35.101Z,22.93
2024-05-09T03:28:35.079Z,22.94
2024-05-09T03:29:35.120Z,22.92
2024-05-09T03:30:40.501Z,22.93
2024-05-09T03:31:36.126Z,22.92
2024-05-09T03:32:35.283Z,22.92
2024-05-09T03:33:35.437Z,22.93
2024-05-09T03:34:35.113Z,22.92
2024-05-09T03:35:35.227Z,22.93
2024-05-09T03:36:35.120Z,22.93
2024-05-09T03:37:35.131Z,22.93
2024-05-09T03:38:35.181Z,22.92
2024-05-09T03:39:35.112Z,22.91
2024-05-09T03:40:35.142Z,22.92
2024-05-09T03:41:35.176Z,22.92
2024-05-09T03:42:35.140Z,22.92
2024-05-09T03:43:35.112Z,22.92
2024-05-09T03:44:35.167Z,22.92
2024-05-09T03:45:35.117Z,22.92
2024-05-09T03:46:35.128Z,22.92
2024-05-09T03:47:35.662Z,22.92
2024-05-09T03:48:35.245Z,22.91
2024-05-09T03:49:35.157Z,22.92
2024-05-09T03:50:36.337Z,22.92
2024-05-09T03:51:35.127Z,22.92
2024-05-09T03:52:35.162Z,22.91
2024-05-09T03:53:35.275Z,22.92
2024-05-09T03:54:35.184Z,22.92
2024-05-09T03:55:35.223Z,22.92
2024-05-09T03:56:35.355Z,22.92
2024-05-09T03:57:35.283Z,22.92
2024-05-09T03:58:35.333Z,22.92
2024-05-09T03:59:35.374Z,22.91
2024-05-09T04:00:38.695Z,22.92
2024-05-09T04:01:35.510Z,22.91
2024-05-09T04:02:35.441Z,22.91
2024-05-09T04:03:35.482Z,22.92
2024-05-09T04:04:35.470Z,22.91
2024-05-09T04:05:35.498Z,22.92
2024-05-09T04:06:35.414Z,22.92
2024-05-09T04:07:35.419Z,22.92
2024-05-09T04:08:35.565Z,22.91
2024-05-09T04:09:35.411Z,22.91
2024-05-09T04:10:35.809Z,22.92
2024-05-09T04:11:35.519Z,22.93
2024-05-09T04:12:35.457Z,22.92
2024-05-09T04:13:35.428Z,22.92
2024-05-09T04:14:35.495Z,22.91
2024-05-09T04:15:35.403Z,22.91
2024-05-09T04:16:35.459Z,22.92
2024-05-09T04:17:35.672Z,22.91
2024-05-09T04:18:35.504Z,22.91
2024-05-09T04:19:35.478Z,22.91
2024-05-09T04:20:39.051Z,22.91
2024-05-09T04:21:36.458Z,22.90
2024-05-09T04:22:35.504Z,22.90
2024-05-09T04:23:35.540Z,22.91
2024-05-09T04:24:35.442Z,22.90
2024-05-09T04:25:35.467Z,22.90
2024-05-09T04:26:35.541Z,22.90
2024-05-09T04:27:35.452Z,22.90
2024-05-09T04:28:35.442Z,22.90
2024-05-09T04:29:35.550Z,22.90
2024-05-09T04:30:39.258Z,22.89
2024-05-09T04:31:36.462Z,22.90
2024-05-09T04:33:35.715Z,22.89
2024-05-09T04:34:35.592Z,22.90
2024-05-09T04:35:35.524Z,22.90
2024-05-09T04:36:35.461Z,22.90
2024-05-09T04:37:35.503Z,22.91
2024-05-09T04:38:35.539Z,22.90
2024-05-09T04:39:36.483Z,22.90
2024-05-09T04:40:37.103Z,22.90
2024-05-09T04:41:35.560Z,22.89
2024-05-09T04:42:35.475Z,22.89
2024-05-09T04:43:35.501Z,22.90
2024-05-09T04:44:35.536Z,22.89
2024-05-09T04:45:35.881Z,22.89
2024-05-09T04:46:35.566Z,22.89
2024-05-09T04:47:42.968Z,22.87
2024-05-09T04:48:42.955Z,22.87
2024-05-09T04:49:42.872Z,22.88
2024-05-09T04:50:43.014Z,22.88
2024-05-09T04:51:42.878Z,22.89
2024-05-09T04:52:42.881Z,22.88
2024-05-09T04:54:42.893Z,22.88
2024-05-09T04:55:42.888Z,22.88
2024-05-09T04:56:42.966Z,22.88
2024-05-09T04:57:42.917Z,22.88
2024-05-09T04:58:42.896Z,22.88
2024-05-09T04:59:42.916Z,22.88
2024-05-09T05:00:43.267Z,22.88
2024-05-09T05:01:42.884Z,22.88
2024-05-09T05:02:43.142Z,22.87
2024-05-09T05:03:43.068Z,22.87
2024-05-09T05:04:42.953Z,22.88
2024-05-09T05:05:44.005Z,22.87
2024-05-09T05:06:42.911Z,22.87
2024-05-09T05:07:42.907Z,22.88
2024-05-09T05:08:42.939Z,22.87
2024-05-09T05:09:42.922Z,22.87
2024-05-09T05:10:42.970Z,22.87
2024-05-09T05:11:43.053Z,22.87
2024-05-09T05:12:42.954Z,22.86
2024-05-09T05:13:42.935Z,22.86
2024-05-09T05:14:42.906Z,22.86
2024-05-09T05:15:42.922Z,22.86
2024-05-09T05:16:42.926Z,22.86
2024-05-09T05:17:43.039Z,22.86
2024-05-09T05:18:42.991Z,22.86
2024-05-09T05:19:42.978Z,22.85
2024-05-09T05:20:43.127Z,22.86
2024-05-09T05:21:42.925Z,22.86
2024-05-09T05:22:42.948Z,22.86
2024-05-09T05:23:42.977Z,22.86
2024-05-09T05:24:42.964Z,22.86
2024-05-09T05:25:42.950Z,22.86
2024-05-09T05:26:42.979Z,22.86
2024-05-09T05:27:42.955Z,22.86
2024-05-09T05:28:42.951Z,22.86
2024-05-09T05:29:43.033Z,22.85
2024-05-09T05:30:42.987Z,22.86
2024-05-09T05:31:43.043Z,22.85
2024-05-09T05:32:43.342Z,22.85
2024-05-09T05:33:43.149Z,22.85
2024-05-09T05:34:43.076Z,22.84
2024-05-09T05:35:43.366Z,22.85
2024-05-09T05:36:43.113Z,22.85
2024-05-09T05:37:43.132Z,22.85
2024-05-09T05:38:43.254Z,22.85
2024-05-09T05:39:43.204Z,22.84
2024-05-09T05:40:43.193Z,22.84
2024-05-09T05:41:43.219Z,22.85
2024-05-09T05:42:43.227Z,22.84
2024-05-09T05:43:43.231Z,22.84
2024-05-09T05:44:43.267Z,22.85
2024-05-09T05:45:43.276Z,22.85
2024-05-09T05:46:43.301Z,22.84
2024-05-09T05:47:43.457Z,22.84
2024-05-09T05:48:43.610Z,22.85
2024-05-09T05:49:43.373Z,22.84
2024-05-09T05:50:43.423Z,22.84
2024-05-09T05:51:43.379Z,22.84
2024-05-09T05:52:43.412Z,22.84
2024-05-09T05:53:43.427Z,22.84
2024-05-09T05:54:43.463Z,22.83
2024-05-09T05:55:43.467Z,22.84
2024-05-09T05:56:43.519Z,22.83
2024-05-09T05:57:43.529Z,22.84
2024-05-09T05:58:43.543Z,22.84
2024-05-09T05:59:43.655Z,22.84
2024-05-09T06:00:43.583Z,22.84
2024-05-09T06:01:43.619Z,22.84
2024-05-09T06:02:43.856Z,22.84
2024-05-09T06:03:43.785Z,22.84
2024-05-09T06:04:43.793Z,22.84
2024-05-09T06:05:44.311Z,22.84
2024-05-09T06:06:43.708Z,22.84
2024-05-09T06:07:44.021Z,22.84
2024-05-09T06:08:43.890Z,22.83
2024-05-09T06:09:45.291Z,22.84
2024-05-09T06:10:43.885Z,22.84
2024-05-09T06:11:43.892Z,22.83
2024-05-09T06:12:43.759Z,22.84
2024-05-09T06:13:43.818Z,22.84
2024-05-09T06:14:43.779Z,22.84
2024-05-09T06:15:44.115Z,22.84
2024-05-09T06:16:43.830Z,22.85
2024-05-09T06:17:43.923Z,22.84
2024-05-09T06:18:43.891Z,22.84
2024-05-09T06:19:43.884Z,22.85
2024-05-09T06:20:44.440Z,22.85
2024-05-09T06:21:43.773Z,22.85
2024-05-09T06:22:43.800Z,22.84
2024-05-09T06:23:43.879Z,22.84
2024-05-09T06:24:43.818Z,22.85
2024-05-09T06:25:44.772Z,22.85
2024-05-09T06:26:43.886Z,22.85
2024-05-09T06:27:43.801Z,22.86
2024-05-09T06:28:43.813Z,22.86
2024-05-09T06:29:43.863Z,22.86
2024-05-09T06:30:43.799Z,22.86
2024-05-09T06:31:43.842Z,22.86
2024-05-09T06:32:44.031Z,22.86
2024-05-09T06:33:43.955Z,22.86
2024-05-09T06:34:43.972Z,22.85
2024-05-09T06:35:43.989Z,22.86
2024-05-09T06:36:43.814Z,22.86
2024-05-09T06:37:44.014Z,22.86
2024-05-09T06:38:43.857Z,22.86
2024-05-09T06:39:43.820Z,22.87
2024-05-09T06:40:44.626Z,22.87
2024-05-09T06:41:43.893Z,22.87
2024-05-09T06:42:43.840Z,22.86
2024-05-09T06:43:43.818Z,22.86
2024-05-09T06:44:43.881Z,22.86
2024-05-09T06:45:43.816Z,22.87
2024-05-09T06:46:43.845Z,22.86
2024-05-09T06:47:43.973Z,22.87
2024-05-09T06:48:43.930Z,22.87
2024-05-09T06:49:43.844Z,22.87
2024-05-09T06:50:43.864Z,22.88
2024-05-09T06:51:43.837Z,22.87
2024-05-09T06:52:43.835Z,22.88
2024-05-09T06:53:43.839Z,22.89
2024-05-09T06:54:43.827Z,22.90
2024-05-09T06:55:43.837Z,22.89
2024-05-09T06:56:43.933Z,22.90
2024-05-09T06:57:43.837Z,22.90
2024-05-09T06:58:43.829Z,22.90
2024-05-09T06:59:43.896Z,22.90
2024-05-09T07:00:43.988Z,22.90
2024-05-09T07:01:43.879Z,22.90
2024-05-09T07:02:44.006Z,22.92
2024-05-09T07:03:43.962Z,22.92
2024-05-09T07:04:43.870Z,22.91
2024-05-09T07:05:43.894Z,22.92
2024-05-09T07:06:43.869Z,22.92
2024-05-09T07:07:43.859Z,22.92
2024-05-09T07:08:43.929Z,22.93
2024-05-09T07:09:44.866Z,22.92
2024-05-09T07:10:43.936Z,22.93
2024-05-09T07:11:43.956Z,22.93
2024-05-09T07:12:44.017Z,22.93
2024-05-09T07:13:43.849Z,22.92
2024-05-09T07:14:43.947Z,22.93
2024-05-09T07:15:43.927Z,22.93
2024-05-09T07:16:43.842Z,22.93
2024-05-09T07:17:44.031Z,22.93
2024-05-09T07:18:44.015Z,22.94
2024-05-09T07:19:43.910Z,22.94
2024-05-09T07:20:43.903Z,22.95
2024-05-09T07:21:43.838Z,22.95
2024-05-09T07:22:43.864Z,22.96
2024-05-09T07:23:46.824Z,22.96
2024-05-09T07:24:43.876Z,22.96
2024-05-09T07:25:43.856Z,22.96
2024-05-09T07:26:43.897Z,22.98
2024-05-09T07:27:43.865Z,22.98
2024-05-09T07:28:43.856Z,22.98
2024-05-09T07:29:43.962Z,22.98
2024-05-09T07:30:43.878Z,23.00
2024-05-09T07:31:43.849Z,23.00
2024-05-09T07:32:44.097Z,23.01
2024-05-09T07:33:43.966Z,23.01
2024-05-09T07:34:43.869Z,23.02
2024-05-09T07:35:43.943Z,23.02
2024-05-09T07:36:43.880Z,23.02
2024-05-09T07:37:43.892Z,23.03
2024-05-09T07:38:43.985Z,23.04
2024-05-09T07:39:43.873Z,23.04
2024-05-09T07:40:43.887Z,23.04
2024-05-09T07:41:43.923Z,23.05
2024-05-09T07:42:43.904Z,23.05
2024-05-09T07:43:43.903Z,23.05
2024-05-09T07:44:43.943Z,23.05
2024-05-09T07:45:51.302Z,23.05
2024-05-09T07:47:48.282Z,23.04
2024-05-09T07:51:32.047Z,23.05
2024-05-09T07:53:17.133Z,23.05
2024-05-09T07:53:34.452Z,23.04
2024-05-09T07:53:48.359Z,23.05
2024-05-09T07:54:45.049Z,23.05
2024-05-09T07:55:44.119Z,23.06
2024-05-09T07:56:44.328Z,23.06
2024-05-09T07:57:43.922Z,23.05
2024-05-09T07:58:43.902Z,23.06
2024-05-09T07:59:43.927Z,23.07
2024-05-09T08:00:44.010Z,23.08
2024-05-09T08:01:44.044Z,23.08
2024-05-09T08:02:43.988Z,23.08
2024-05-09T08:03:44.110Z,23.10
2024-05-09T08:04:44.041Z,23.11
2024-05-09T08:05:44.067Z,23.11
2024-05-09T08:06:44.587Z,23.11
2024-05-09T08:07:43.945Z,23.12
2024-05-09T08:08:43.948Z,23.13
2024-05-09T08:09:44.030Z,23.13
2024-05-09T08:10:44.022Z,23.13
2024-05-09T08:11:43.960Z,23.13
2024-05-09T08:12:43.978Z,23.14
2024-05-09T08:13:43.961Z,23.14
2024-05-09T08:14:43.945Z,23.15
2024-05-09T08:15:43.992Z,23.15
2024-05-09T08:16:44.034Z,23.15
2024-05-09T08:17:43.996Z,23.15
2024-05-09T08:18:44.020Z,23.15
2024-05-09T08:19:43.993Z,23.15
2024-05-09T08:20:43.952Z,23.16
2024-05-09T08:21:43.953Z,23.16
2024-05-09T08:22:43.972Z,23.17
2024-05-09T08:23:43.962Z,23.16
2024-05-09T08:24:44.031Z,23.17
2024-05-09T08:25:43.941Z,23.18
2024-05-09T08:26:43.960Z,23.18
2024-05-09T08:27:44.021Z,23.17
2024-05-09T08:28:43.978Z,23.17
2024-05-09T08:29:44.052Z,23.18
2024-05-09T08:30:44.196Z,23.18
2024-05-09T08:31:43.977Z,23.18
2024-05-09T08:32:44.104Z,23.19
2024-05-09T08:33:44.138Z,23.19
2024-05-09T08:34:44.030Z,23.19
2024-05-09T08:35:43.983Z,23.19
2024-05-09T08:36:44.004Z,23.20
2024-05-09T08:37:44.060Z,23.20
2024-05-09T08:38:43.981Z,23.20
2024-05-09T08:39:44.000Z,23.20
2024-05-09T08:40:44.167Z,23.20
2024-05-09T08:41:43.993Z,23.21
2024-05-09T08:42:44.044Z,23.21
2024-05-09T08:43:43.986Z,23.22
2024-05-09T08:44:43.969Z,23.22
2024-05-09T08:45:45.288Z,23.22
2024-05-09T08:46:44.000Z,23.22
2024-05-09T08:47:44.151Z,23.23
2024-05-09T08:48:44.270Z,23.23
2024-05-09T08:49:44.052Z,23.24
2024-05-09T08:50:45.080Z,23.26
2024-05-09T08:51:44.024Z,23.26
2024-05-09T08:52:44.047Z,23.27
2024-05-09T08:53:43.990Z,23.27
2024-05-09T08:54:44.034Z,23.28
2024-05-09T08:55:44.561Z,23.29
2024-05-09T08:56:44.009Z,23.29
2024-05-09T08:57:44.062Z,23.28
2024-05-09T08:58:44.018Z,23.29
2024-05-09T08:59:43.983Z,23.29
2024-05-09T09:00:44.321Z,23.30
2024-05-09T09:01:44.153Z,23.31
2024-05-09T09:02:44.228Z,23.31
2024-05-09T09:03:44.213Z,23.31
2024-05-09T09:04:44.179Z,23.32
2024-05-09T09:05:44.087Z,23.32
2024-05-09T09:06:44.217Z,23.33
2024-05-09T09:07:44.027Z,23.33
2024-05-09T09:08:43.991Z,23.33
2024-05-09T09:09:44.317Z,23.34
2024-05-09T09:10:44.209Z,23.35
2024-05-09T09:11:44.043Z,23.36
2024-05-09T09:12:44.086Z,23.37
2024-05-09T09:13:44.018Z,23.37
2024-05-09T09:14:44.055Z,23.37
2024-05-09T09:15:44.063Z,23.39
2024-05-09T09:16:44.017Z,23.40
2024-05-09T09:17:44.098Z,23.40
2024-05-09T09:18:44.264Z,23.40
2024-05-09T09:19:44.102Z,23.42
2024-05-09T09:20:44.180Z,23.42
2024-05-09T09:21:44.071Z,23.43
2024-05-09T09:22:44.053Z,23.43
2024-05-09T09:23:44.051Z,23.44
2024-05-09T09:24:44.044Z,23.44
2024-05-09T09:25:44.034Z,23.45
2024-05-09T09:26:44.012Z,23.46
2024-05-09T09:27:44.076Z,23.47
2024-05-09T09:28:44.068Z,23.47
2024-05-09T09:29:44.035Z,23.48
2024-05-09T09:30:44.107Z,23.49
2024-05-09T09:31:44.044Z,23.49
2024-05-09T09:32:44.120Z,23.48
2024-05-09T09:33:44.282Z,23.49
2024-05-09T09:34:44.094Z,23.49
2024-05-09T09:35:44.062Z,23.50
2024-05-09T09:36:44.082Z,23.51
2024-05-09T09:37:44.054Z,23.51
2024-05-09T09:38:44.090Z,23.52
2024-05-09T09:39:48.762Z,23.51
2024-05-09T09:40:49.127Z,23.52
2024-05-09T09:41:44.060Z,23.52
2024-05-09T09:42:44.115Z,23.52
2024-05-09T09:43:44.066Z,23.53
2024-05-09T09:44:47.918Z,23.53
2024-05-09T09:45:45.110Z,23.53
2024-05-09T09:46:44.049Z,23.53
2024-05-09T09:47:44.192Z,23.54
2024-05-09T09:48:44.272Z,23.54
2024-05-09T09:49:44.215Z,23.55
2024-05-09T09:50:44.070Z,23.55
2024-05-09T09:51:44.142Z,23.55
2024-05-09T09:52:44.063Z,23.55
2024-05-09T09:53:44.063Z,23.56
2024-05-09T09:54:44.150Z,23.57
2024-05-09T09:55:44.085Z,23.57
2024-05-09T09:56:44.085Z,23.57
2024-05-09T09:57:44.125Z,23.57
2024-05-09T09:58:44.090Z,23.57
2024-05-09T09:59:44.128Z,23.58
2024-05-09T10:00:44.487Z,23.58
2024-05-09T10:01:44.165Z,23.58
2024-05-09T10:02:44.119Z,23.58
2024-05-09T10:03:44.257Z,23.59
2024-05-09T10:04:44.254Z,23.59
2024-05-09T10:05:46.467Z,23.59
2024-05-09T10:06:44.144Z,23.59
2024-05-09T10:07:44.127Z,23.59
2024-05-09T10:08:44.589Z,23.60
2024-05-09T10:09:44.180Z,23.60
2024-05-09T10:10:44.440Z,23.61
2024-05-09T10:11:49.169Z,23.61
2024-05-09T10:12:45.139Z,23.61
2024-05-09T10:13:44.132Z,23.61
2024-05-09T10:14:44.149Z,23.61
2024-05-09T10:15:44.157Z,23.61
2024-05-09T10:16:44.138Z,23.62
2024-05-09T10:17:44.240Z,23.62
2024-05-09T10:18:44.310Z,23.62
2024-05-09T10:19:44.247Z,23.62
2024-05-09T10:20:44.271Z,23.62
2024-05-09T10:21:44.226Z,23.63
2024-05-09T10:22:44.136Z,23.62
2024-05-09T10:23:44.579Z,23.64
2024-05-09T10:24:44.192Z,23.63
2024-05-09T10:25:44.186Z,23.64
2024-05-09T10:26:44.244Z,23.65
2024-05-09T10:27:44.307Z,23.65
2024-05-09T10:28:44.346Z,23.65
2024-05-09T10:29:44.362Z,23.66
2024-05-09T10:30:45.276Z,23.66
2024-05-09T10:31:44.694Z,23.66
2024-05-09T10:32:44.703Z,23.66
2024-05-09T10:33:44.778Z,23.66
2024-05-09T10:34:44.732Z,23.66
2024-05-09T10:35:44.674Z,23.67
2024-05-09T10:36:44.784Z,23.67
2024-05-09T10:37:44.779Z,23.67
2024-05-09T10:38:44.830Z,23.68
2024-05-09T10:39:44.899Z,23.68
2024-05-09T10:40:44.978Z,23.69
2024-05-09T10:41:44.987Z,23.68
2024-05-09T10:42:45.077Z,23.68
2024-05-09T10:43:45.089Z,23.69
2024-05-09T10:44:45.118Z,23.69
2024-05-09T10:45:45.223Z,23.70
2024-05-09T10:46:45.255Z,23.70
2024-05-09T10:47:45.408Z,23.70
2024-05-09T10:48:45.551Z,23.69
2024-05-09T10:49:45.434Z,23.70
2024-05-09T10:50:45.492Z,23.70
2024-05-09T10:51:45.558Z,23.71
2024-05-09T10:52:45.571Z,23.71
2024-05-09T10:53:46.156Z,23.70
2024-05-09T10:54:45.738Z,23.71
2024-05-09T10:55:45.773Z,23.71
2024-05-09T10:56:45.809Z,23.70
2024-05-09T10:57:45.894Z,23.71
2024-05-09T10:58:45.958Z,23.70
2024-05-09T10:59:45.955Z,23.72
2024-05-09T11:00:46.133Z,23.72
2024-05-09T11:01:46.172Z,23.72
2024-05-09T11:02:46.218Z,23.72
2024-05-09T11:03:46.510Z,23.72
2024-05-09T11:04:46.296Z,23.74
2024-05-09T11:05:46.362Z,23.73
2024-05-09T11:06:46.426Z,23.74
2024-05-09T11:07:46.403Z,23.74
2024-05-09T11:08:46.617Z,23.73
2024-05-09T11:09:46.533Z,23.73
2024-05-09T11:10:46.709Z,23.73
2024-05-09T11:11:46.722Z,23.74
2024-05-09T11:12:46.766Z,23.74
2024-05-09T11:13:46.838Z,23.75
2024-05-09T11:14:46.846Z,23.75
2024-05-09T11:15:46.992Z,23.74
2024-05-09T11:16:47.012Z,23.76
2024-05-09T11:17:47.169Z,23.76
2024-05-09T11:18:47.269Z,23.76
2024-05-09T11:19:47.212Z,23.77
2024-05-09T11:20:47.334Z,23.77
2024-05-09T11:21:47.377Z,23.77
2024-05-09T11:22:47.418Z,23.78
2024-05-09T11:23:47.464Z,23.77
2024-05-09T11:24:47.574Z,23.78
2024-05-09T11:25:47.641Z,23.78
2024-05-09T11:26:47.708Z,23.78
2024-05-09T11:27:47.811Z,23.79
2024-05-09T11:28:47.877Z,23.79
2024-05-09T11:29:47.923Z,23.80
2024-05-09T11:30:48.046Z,23.80
2024-05-09T11:31:48.162Z,23.80
2024-05-09T11:32:48.251Z,23.80
2024-05-09T11:33:48.371Z,23.80
2024-05-09T11:34:48.262Z,23.80
2024-05-09T11:35:48.321Z,23.80
2024-05-09T11:36:48.489Z,23.81
2024-05-09T11:37:48.497Z,23.81
2024-05-09T11:38:48.565Z,23.81
2024-05-09T11:39:48.666Z,23.81
2024-05-09T11:40:48.763Z,23.81
2024-05-09T11:41:48.725Z,23.81
2024-05-09T11:42:50.832Z,23.82
2024-05-09T11:43:48.810Z,23.82
2024-05-09T11:44:48.815Z,23.82
2024-05-09T11:45:48.827Z,23.83
2024-05-09T11:46:48.812Z,23.83
2024-05-09T11:47:48.901Z,23.82
2024-05-09T11:48:49.096Z,23.83
2024-05-09T11:49:48.854Z,23.82
2024-05-09T11:50:48.796Z,23.83
2024-05-09T11:51:48.867Z,23.83
2024-05-09T11:52:48.793Z,23.83
2024-05-09T11:53:49.168Z,23.82
2024-05-09T11:54:48.846Z,23.84
2024-05-09T11:55:48.858Z,23.83
2024-05-09T11:56:48.829Z,23.83
2024-05-09T11:57:48.837Z,23.83
2024-05-09T11:58:48.859Z,23.83
2024-05-09T11:59:48.881Z,23.82
2024-05-09T12:00:49.070Z,23.82
2024-05-09T12:01:49.030Z,23.82
2024-05-09T12:02:48.846Z,23.83
2024-05-09T12:03:48.966Z,23.82
2024-05-09T12:04:49.003Z,23.83
2024-05-09T12:05:48.949Z,23.83
2024-05-09T12:06:48.886Z,23.83
2024-05-09T12:07:48.862Z,23.83
2024-05-09T12:08:48.858Z,23.83
2024-05-09T12:09:48.959Z,23.83
2024-05-09T12:10:49.200Z,23.84
2024-05-09T12:11:48.984Z,23.84
2024-05-09T12:12:49.068Z,23.84
2024-05-09T12:13:49.104Z,23.83
2024-05-09T12:14:49.172Z,23.83
2024-05-09T12:15:49.301Z,23.83
2024-05-09T12:16:49.317Z,23.83
2024-05-09T12:17:50.941Z,23.83
2024-05-09T12:18:49.568Z,23.83
2024-05-09T12:19:49.513Z,23.84
2024-05-09T12:20:49.572Z,23.84
2024-05-09T12:21:49.659Z,23.84
2024-05-09T12:22:49.737Z,23.83
2024-05-09T12:23:49.777Z,23.83
2024-05-09T12:24:49.887Z,23.83
2024-05-09T12:25:49.958Z,23.83
2024-05-09T12:26:50.007Z,23.82
2024-05-09T12:27:50.133Z,23.83
2024-05-09T12:28:50.131Z,23.81
2024-05-09T12:29:50.225Z,23.82
2024-05-09T12:30:50.375Z,23.82
2024-05-09T12:31:50.364Z,23.83
2024-05-09T12:32:50.511Z,23.82
2024-05-09T12:33:50.564Z,23.83
2024-05-09T12:34:50.538Z,23.83
2024-05-09T12:35:51.170Z,23.82
2024-05-09T12:36:50.668Z,23.82
2024-05-09T12:37:50.723Z,23.83
2024-05-09T12:38:51.154Z,23.83
2024-05-09T12:39:50.901Z,23.83
2024-05-09T12:40:51.078Z,23.83
2024-05-09T12:41:51.008Z,23.83
2024-05-09T12:42:51.168Z,23.83
2024-05-09T12:43:51.114Z,23.82
2024-05-09T12:44:51.198Z,23.83
2024-05-09T12:45:51.319Z,23.83
2024-05-09T12:46:51.334Z,23.82
2024-05-09T12:47:51.470Z,23.82
2024-05-09T12:48:51.656Z,23.82
2024-05-09T12:49:51.586Z,23.83
2024-05-09T12:50:51.688Z,23.82
2024-05-09T12:51:51.693Z,23.82
2024-05-09T12:52:51.749Z,23.82
2024-05-09T12:53:51.840Z,23.81
2024-05-09T12:54:51.927Z,23.81
2024-05-09T12:55:56.761Z,23.82
2024-05-09T12:56:52.984Z,23.81
2024-05-09T12:57:52.032Z,23.80